sensor_id;sensor_type;location;lat;lon;timestamp;P1;durP1;ratioP1;P2;durP2;ratioP2
22937;SDS011;11634;42.734;23.298;2023-05-29T00:01:59;4.55;;;3.70;;
22937;SDS011;11634;42.734;23.298;2023-05-29T00:04:25;6.28;;;3.88;;
22937;SDS011;11634;42.734;23.298;2023-05-29T00:06:50;4.28;;;3.80;;
22937;SDS011;11634;42.734;23.298;2023-05-29T00:09:16;5.60;;;3.95;;
22937;SDS011;11634;42.734;23.298;2023-05-29T00:11:41;4.85;;;3.78;;
22937;SDS011;11634;42.734;23.298;2023-05-29T00:14:06;4.30;;;3.90;;
22937;SDS011;11634;42.734;23.298;2023-05-29T00:16:32;5.80;;;4.30;;
22937;SDS011;11634;42.734;23.298;2023-05-29T00:18:57;4.95;;;4.10;;
22937;SDS011;11634;42.734;23.298;2023-05-29T00:21:23;4.68;;;4.15;;
22937;SDS011;11634;42.734;23.298;2023-05-29T00:23:48;5.13;;;4.40;;
22937;SDS011;11634;42.734;23.298;2023-05-29T00:26:14;7.63;;;4.72;;
22937;SDS011;11634;42.734;23.298;2023-05-29T00:28:42;6.55;;;4.70;;
22937;SDS011;11634;42.734;23.298;2023-05-29T00:31:08;6.30;;;5.00;;
22937;SDS011;11634;42.734;23.298;2023-05-29T00:33:33;7.03;;;4.80;;
22937;SDS011;11634;42.734;23.298;2023-05-29T00:35:59;8.15;;;5.10;;
22937;SDS011;11634;42.734;23.298;2023-05-29T00:38:28;6.22;;;5.20;;
22937;SDS011;11634;42.734;23.298;2023-05-29T00:40:54;6.00;;;4.88;;
22937;SDS011;11634;42.734;23.298;2023-05-29T00:43:19;5.40;;;4.47;;
22937;SDS011;11634;42.734;23.298;2023-05-29T00:45:45;5.30;;;4.35;;
22937;SDS011;11634;42.734;23.298;2023-05-29T00:48:10;5.15;;;4.63;;
22937;SDS011;11634;42.734;23.298;2023-05-29T00:50:36;5.15;;;4.57;;
22937;SDS011;11634;42.734;23.298;2023-05-29T00:53:02;5.03;;;4.53;;
22937;SDS011;11634;42.734;23.298;2023-05-29T00:55:29;5.63;;;4.60;;
22937;SDS011;11634;42.734;23.298;2023-05-29T00:57:55;6.53;;;5.00;;
22937;SDS011;11634;42.734;23.298;2023-05-29T01:00:21;6.88;;;4.70;;
22937;SDS011;11634;42.734;23.298;2023-05-29T01:02:47;5.70;;;4.65;;
22937;SDS011;11634;42.734;23.298;2023-05-29T01:05:13;5.18;;;4.68;;
22937;SDS011;11634;42.734;23.298;2023-05-29T01:07:42;6.15;;;4.97;;
22937;SDS011;11634;42.734;23.298;2023-05-29T01:10:08;8.85;;;5.10;;
22937;SDS011;11634;42.734;23.298;2023-05-29T01:15:07;6.53;;;4.95;;
22937;SDS011;11634;42.734;23.298;2023-05-29T01:20:59;5.85;;;4.88;;
22937;SDS011;11634;42.734;23.298;2023-05-29T01:28:04;6.15;;;4.80;;
22937;SDS011;11634;42.734;23.298;2023-05-29T01:30:31;6.38;;;5.03;;
22937;SDS011;11634;42.734;23.298;2023-05-29T01:32:58;7.22;;;4.85;;
22937;SDS011;11634;42.734;23.298;2023-05-29T01:35:23;6.82;;;4.78;;
22937;SDS011;11634;42.734;23.298;2023-05-29T01:37:49;5.63;;;4.47;;
22937;SDS011;11634;42.734;23.298;2023-05-29T01:40:14;5.82;;;4.95;;
22937;SDS011;11634;42.734;23.298;2023-05-29T01:42:43;7.68;;;5.38;;
22937;SDS011;11634;42.734;23.298;2023-05-29T01:45:08;6.25;;;5.45;;
22937;SDS011;11634;42.734;23.298;2023-05-29T01:47:34;6.63;;;5.68;;
22937;SDS011;11634;42.734;23.298;2023-05-29T01:50:04;8.45;;;5.30;;
22937;SDS011;11634;42.734;23.298;2023-05-29T01:52:30;6.45;;;5.50;;
22937;SDS011;11634;42.734;23.298;2023-05-29T01:54:56;7.32;;;5.70;;
22937;SDS011;11634;42.734;23.298;2023-05-29T01:57:21;9.32;;;6.13;;
22937;SDS011;11634;42.734;23.298;2023-05-29T01:59:47;7.35;;;5.50;;
22937;SDS011;11634;42.734;23.298;2023-05-29T02:02:13;5.72;;;5.18;;
22937;SDS011;11634;42.734;23.298;2023-05-29T02:04:39;7.22;;;6.20;;
22937;SDS011;11634;42.734;23.298;2023-05-29T02:07:04;7.68;;;5.57;;
22937;SDS011;11634;42.734;23.298;2023-05-29T02:09:31;8.57;;;5.80;;
22937;SDS011;11634;42.734;23.298;2023-05-29T02:11:56;8.20;;;6.47;;
22937;SDS011;11634;42.734;23.298;2023-05-29T02:14:22;10.02;;;6.00;;
22937;SDS011;11634;42.734;23.298;2023-05-29T02:16:51;7.82;;;6.55;;
22937;SDS011;11634;42.734;23.298;2023-05-29T02:19:20;7.32;;;6.50;;
22937;SDS011;11634;42.734;23.298;2023-05-29T02:21:46;6.68;;;5.93;;
22937;SDS011;11634;42.734;23.298;2023-05-29T02:24:12;8.77;;;7.05;;
22937;SDS011;11634;42.734;23.298;2023-05-29T02:26:39;7.80;;;6.20;;
22937;SDS011;11634;42.734;23.298;2023-05-29T02:29:05;7.88;;;6.60;;
22937;SDS011;11634;42.734;23.298;2023-05-29T02:31:31;7.75;;;6.53;;
22937;SDS011;11634;42.734;23.298;2023-05-29T02:33:56;7.70;;;6.15;;
22937;SDS011;11634;42.734;23.298;2023-05-29T02:36:21;10.02;;;6.60;;
22937;SDS011;11634;42.734;23.298;2023-05-29T02:38:49;8.65;;;7.07;;
22937;SDS011;11634;42.734;23.298;2023-05-29T02:41:15;10.20;;;6.97;;
22937;SDS011;11634;42.734;23.298;2023-05-29T02:43:42;7.97;;;6.25;;
22937;SDS011;11634;42.734;23.298;2023-05-29T02:46:07;10.52;;;7.07;;
22937;SDS011;11634;42.734;23.298;2023-05-29T02:48:33;9.30;;;6.75;;
22937;SDS011;11634;42.734;23.298;2023-05-29T02:50:58;9.18;;;7.63;;
22937;SDS011;11634;42.734;23.298;2023-05-29T02:53:23;10.20;;;6.40;;
22937;SDS011;11634;42.734;23.298;2023-05-29T02:55:51;8.63;;;7.07;;
22937;SDS011;11634;42.734;23.298;2023-05-29T02:58:17;10.30;;;7.18;;
22937;SDS011;11634;42.734;23.298;2023-05-29T03:00:43;12.18;;;7.35;;
22937;SDS011;11634;42.734;23.298;2023-05-29T03:03:08;12.75;;;7.32;;
22937;SDS011;11634;42.734;23.298;2023-05-29T03:05:37;8.25;;;7.10;;
22937;SDS011;11634;42.734;23.298;2023-05-29T03:08:03;11.52;;;7.05;;
22937;SDS011;11634;42.734;23.298;2023-05-29T03:10:28;8.85;;;6.65;;
22937;SDS011;11634;42.734;23.298;2023-05-29T03:12:54;8.02;;;6.88;;
22937;SDS011;11634;42.734;23.298;2023-05-29T03:15:20;9.05;;;7.35;;
22937;SDS011;11634;42.734;23.298;2023-05-29T03:17:46;9.27;;;7.03;;
22937;SDS011;11634;42.734;23.298;2023-05-29T03:20:15;8.65;;;6.50;;
22937;SDS011;11634;42.734;23.298;2023-05-29T03:22:41;15.07;;;7.45;;
22937;SDS011;11634;42.734;23.298;2023-05-29T03:25:07;11.77;;;7.20;;
22937;SDS011;11634;42.734;23.298;2023-05-29T03:27:33;9.48;;;7.28;;
22937;SDS011;11634;42.734;23.298;2023-05-29T03:30:09;14.80;;;7.70;;
22937;SDS011;11634;42.734;23.298;2023-05-29T03:32:35;10.82;;;7.95;;
22937;SDS011;11634;42.734;23.298;2023-05-29T03:35:04;9.35;;;6.80;;
22937;SDS011;11634;42.734;23.298;2023-05-29T03:37:30;11.38;;;7.60;;
22937;SDS011;11634;42.734;23.298;2023-05-29T03:39:56;8.38;;;7.20;;
22937;SDS011;11634;42.734;23.298;2023-05-29T03:42:22;7.68;;;6.50;;
22937;SDS011;11634;42.734;23.298;2023-05-29T03:44:51;9.48;;;6.63;;
22937;SDS011;11634;42.734;23.298;2023-05-29T03:47:16;8.48;;;5.97;;
22937;SDS011;11634;42.734;23.298;2023-05-29T03:49:42;8.60;;;5.93;;
22937;SDS011;11634;42.734;23.298;2023-05-29T03:52:07;6.78;;;5.80;;
22937;SDS011;11634;42.734;23.298;2023-05-29T03:54:35;8.73;;;6.47;;
22937;SDS011;11634;42.734;23.298;2023-05-29T03:57:02;6.82;;;6.13;;
22937;SDS011;11634;42.734;23.298;2023-05-29T03:59:27;8.73;;;6.75;;
22937;SDS011;11634;42.734;23.298;2023-05-29T04:01:53;8.25;;;6.85;;
22937;SDS011;11634;42.734;23.298;2023-05-29T04:04:19;9.43;;;7.25;;
22937;SDS011;11634;42.734;23.298;2023-05-29T04:06:44;8.95;;;7.38;;
22937;SDS011;11634;42.734;23.298;2023-05-29T04:09:10;13.43;;;7.38;;
22937;SDS011;11634;42.734;23.298;2023-05-29T04:11:36;12.93;;;7.85;;
22937;SDS011;11634;42.734;23.298;2023-05-29T04:14:02;11.05;;;7.53;;
22937;SDS011;11634;42.734;23.298;2023-05-29T04:16:28;10.05;;;7.65;;
22937;SDS011;11634;42.734;23.298;2023-05-29T04:18:54;13.73;;;7.95;;
22937;SDS011;11634;42.734;23.298;2023-05-29T04:21:21;13.00;;;8.27;;
22937;SDS011;11634;42.734;23.298;2023-05-29T04:23:47;10.77;;;7.50;;
22937;SDS011;11634;42.734;23.298;2023-05-29T04:26:12;10.27;;;6.45;;
22937;SDS011;11634;42.734;23.298;2023-05-29T04:28:41;11.93;;;7.25;;
22937;SDS011;11634;42.734;23.298;2023-05-29T04:31:07;10.10;;;7.10;;
22937;SDS011;11634;42.734;23.298;2023-05-29T04:33:35;10.40;;;6.47;;
22937;SDS011;11634;42.734;23.298;2023-05-29T04:36:02;9.75;;;6.43;;
22937;SDS011;11634;42.734;23.298;2023-05-29T04:38:30;8.95;;;6.00;;
22937;SDS011;11634;42.734;23.298;2023-05-29T04:40:56;10.25;;;7.05;;
22937;SDS011;11634;42.734;23.298;2023-05-29T04:43:27;11.30;;;6.53;;
22937;SDS011;11634;42.734;23.298;2023-05-29T04:46:10;9.73;;;6.95;;
22937;SDS011;11634;42.734;23.298;2023-05-29T04:48:38;7.60;;;6.60;;
22937;SDS011;11634;42.734;23.298;2023-05-29T04:51:06;12.00;;;6.75;;
22937;SDS011;11634;42.734;23.298;2023-05-29T04:53:34;10.07;;;6.63;;
22937;SDS011;11634;42.734;23.298;2023-05-29T04:56:00;11.52;;;8.38;;
22937;SDS011;11634;42.734;23.298;2023-05-29T04:58:25;11.40;;;6.75;;
22937;SDS011;11634;42.734;23.298;2023-05-29T05:00:51;7.90;;;6.03;;
22937;SDS011;11634;42.734;23.298;2023-05-29T05:03:19;12.40;;;6.85;;
22937;SDS011;11634;42.734;23.298;2023-05-29T05:05:45;8.25;;;5.75;;
22937;SDS011;11634;42.734;23.298;2023-05-29T05:08:11;12.80;;;8.57;;
22937;SDS011;11634;42.734;23.298;2023-05-29T05:10:39;10.02;;;7.38;;
22937;SDS011;11634;42.734;23.298;2023-05-29T05:13:05;11.93;;;8.18;;
22937;SDS011;11634;42.734;23.298;2023-05-29T05:15:32;12.60;;;7.13;;
22937;SDS011;11634;42.734;23.298;2023-05-29T05:17:58;10.60;;;6.72;;
22937;SDS011;11634;42.734;23.298;2023-05-29T05:20:24;10.43;;;6.05;;
22937;SDS011;11634;42.734;23.298;2023-05-29T05:22:55;10.90;;;6.30;;
22937;SDS011;11634;42.734;23.298;2023-05-29T05:25:21;9.00;;;7.13;;
22937;SDS011;11634;42.734;23.298;2023-05-29T05:27:47;10.70;;;6.82;;
22937;SDS011;11634;42.734;23.298;2023-05-29T05:30:13;12.57;;;6.70;;
22937;SDS011;11634;42.734;23.298;2023-05-29T05:32:38;10.00;;;5.82;;
22937;SDS011;11634;42.734;23.298;2023-05-29T05:35:05;12.18;;;6.50;;
22937;SDS011;11634;42.734;23.298;2023-05-29T05:37:32;8.00;;;5.38;;
22937;SDS011;11634;42.734;23.298;2023-05-29T05:39:59;10.55;;;5.95;;
22937;SDS011;11634;42.734;23.298;2023-05-29T05:42:29;9.90;;;6.18;;
22937;SDS011;11634;42.734;23.298;2023-05-29T05:45:01;11.73;;;6.03;;
22937;SDS011;11634;42.734;23.298;2023-05-29T05:47:29;8.32;;;6.35;;
22937;SDS011;11634;42.734;23.298;2023-05-29T05:49:56;10.27;;;6.07;;
22937;SDS011;11634;42.734;23.298;2023-05-29T05:52:22;9.70;;;6.80;;
22937;SDS011;11634;42.734;23.298;2023-05-29T05:54:48;10.25;;;5.57;;
22937;SDS011;11634;42.734;23.298;2023-05-29T05:57:13;6.70;;;5.18;;
22937;SDS011;11634;42.734;23.298;2023-05-29T05:59:39;8.95;;;5.85;;
22937;SDS011;11634;42.734;23.298;2023-05-29T06:02:05;7.15;;;6.00;;
22937;SDS011;11634;42.734;23.298;2023-05-29T06:04:31;10.80;;;5.78;;
22937;SDS011;11634;42.734;23.298;2023-05-29T06:06:57;10.07;;;6.20;;
22937;SDS011;11634;42.734;23.298;2023-05-29T06:09:23;11.57;;;6.00;;
22937;SDS011;11634;42.734;23.298;2023-05-29T06:11:48;7.18;;;5.50;;
22937;SDS011;11634;42.734;23.298;2023-05-29T06:14:14;8.50;;;6.30;;
22937;SDS011;11634;42.734;23.298;2023-05-29T06:16:42;9.10;;;6.45;;
22937;SDS011;11634;42.734;23.298;2023-05-29T06:19:08;9.57;;;6.32;;
22937;SDS011;11634;42.734;23.298;2023-05-29T06:21:50;10.70;;;6.55;;
22937;SDS011;11634;42.734;23.298;2023-05-29T06:24:15;11.95;;;6.10;;
22937;SDS011;11634;42.734;23.298;2023-05-29T06:26:41;7.03;;;5.85;;
22937;SDS011;11634;42.734;23.298;2023-05-29T06:29:09;8.68;;;5.78;;
22937;SDS011;11634;42.734;23.298;2023-05-29T06:31:35;8.70;;;6.28;;
22937;SDS011;11634;42.734;23.298;2023-05-29T06:34:00;10.13;;;6.07;;
22937;SDS011;11634;42.734;23.298;2023-05-29T06:36:26;7.55;;;5.68;;
22937;SDS011;11634;42.734;23.298;2023-05-29T06:38:51;8.65;;;5.70;;
22937;SDS011;11634;42.734;23.298;2023-05-29T06:41:20;9.75;;;5.68;;
22937;SDS011;11634;42.734;23.298;2023-05-29T06:43:48;9.80;;;6.43;;
22937;SDS011;11634;42.734;23.298;2023-05-29T06:46:15;7.05;;;5.75;;
22937;SDS011;11634;42.734;23.298;2023-05-29T06:48:41;7.53;;;5.63;;
22937;SDS011;11634;42.734;23.298;2023-05-29T06:51:06;6.07;;;4.68;;
22937;SDS011;11634;42.734;23.298;2023-05-29T06:53:40;6.65;;;4.70;;
22937;SDS011;11634;42.734;23.298;2023-05-29T06:56:07;7.25;;;5.88;;
22937;SDS011;11634;42.734;23.298;2023-05-29T06:58:33;6.35;;;5.13;;
22937;SDS011;11634;42.734;23.298;2023-05-29T07:00:59;6.38;;;4.60;;
22937;SDS011;11634;42.734;23.298;2023-05-29T07:03:31;8.27;;;5.10;;
22937;SDS011;11634;42.734;23.298;2023-05-29T07:05:57;4.30;;;3.90;;
22937;SDS011;11634;42.734;23.298;2023-05-29T07:08:23;8.80;;;4.60;;
22937;SDS011;11634;42.734;23.298;2023-05-29T07:10:50;5.70;;;3.78;;
22937;SDS011;11634;42.734;23.298;2023-05-29T07:13:17;5.38;;;4.00;;
22937;SDS011;11634;42.734;23.298;2023-05-29T07:15:47;5.72;;;3.55;;
22937;SDS011;11634;42.734;23.298;2023-05-29T07:18:20;3.83;;;3.10;;
22937;SDS011;11634;42.734;23.298;2023-05-29T07:20:45;4.68;;;4.00;;
22937;SDS011;11634;42.734;23.298;2023-05-29T07:23:14;4.65;;;2.90;;
22937;SDS011;11634;42.734;23.298;2023-05-29T07:25:40;4.40;;;2.67;;
22937;SDS011;11634;42.734;23.298;2023-05-29T07:28:05;8.57;;;2.50;;
22937;SDS011;11634;42.734;23.298;2023-05-29T07:30:34;3.85;;;2.75;;
22937;SDS011;11634;42.734;23.298;2023-05-29T07:33:00;3.35;;;2.80;;
22937;SDS011;11634;42.734;23.298;2023-05-29T07:35:25;3.38;;;2.60;;
22937;SDS011;11634;42.734;23.298;2023-05-29T07:37:54;4.10;;;2.15;;
22937;SDS011;11634;42.734;23.298;2023-05-29T07:40:21;2.30;;;1.63;;
22937;SDS011;11634;42.734;23.298;2023-05-29T07:43:07;2.55;;;2.35;;
22937;SDS011;11634;42.734;23.298;2023-05-29T07:45:51;1.98;;;1.70;;
22937;SDS011;11634;42.734;23.298;2023-05-29T07:48:17;2.78;;;1.67;;
22937;SDS011;11634;42.734;23.298;2023-05-29T07:50:42;2.95;;;1.70;;
22937;SDS011;11634;42.734;23.298;2023-05-29T07:53:08;1.60;;;1.50;;
22937;SDS011;11634;42.734;23.298;2023-05-29T07:55:36;2.33;;;1.80;;
22937;SDS011;11634;42.734;23.298;2023-05-29T07:58:02;2.13;;;1.70;;
22937;SDS011;11634;42.734;23.298;2023-05-29T08:00:28;2.05;;;1.40;;
22937;SDS011;11634;42.734;23.298;2023-05-29T08:02:54;1.42;;;1.30;;
22937;SDS011;11634;42.734;23.298;2023-05-29T08:05:22;1.63;;;1.50;;
22937;SDS011;11634;42.734;23.298;2023-05-29T08:07:49;2.10;;;1.58;;
22937;SDS011;11634;42.734;23.298;2023-05-29T08:10:14;1.55;;;1.45;;
22937;SDS011;11634;42.734;23.298;2023-05-29T08:12:40;2.95;;;1.60;;
22937;SDS011;11634;42.734;23.298;2023-05-29T08:15:07;2.28;;;1.92;;
22937;SDS011;11634;42.734;23.298;2023-05-29T08:17:34;5.10;;;2.20;;
22937;SDS011;11634;42.734;23.298;2023-05-29T08:20:00;2.28;;;1.95;;
22937;SDS011;11634;42.734;23.298;2023-05-29T08:22:29;2.35;;;1.67;;
22937;SDS011;11634;42.734;23.298;2023-05-29T08:24:59;2.88;;;1.80;;
22937;SDS011;11634;42.734;23.298;2023-05-29T08:27:24;3.03;;;2.22;;
22937;SDS011;11634;42.734;23.298;2023-05-29T08:29:56;3.63;;;1.95;;
22937;SDS011;11634;42.734;23.298;2023-05-29T08:32:21;2.97;;;2.05;;
22937;SDS011;11634;42.734;23.298;2023-05-29T08:34:47;2.30;;;2.03;;
22937;SDS011;11634;42.734;23.298;2023-05-29T08:37:13;2.25;;;2.03;;
22937;SDS011;11634;42.734;23.298;2023-05-29T08:39:38;2.72;;;2.13;;
22937;SDS011;11634;42.734;23.298;2023-05-29T08:42:07;3.90;;;2.50;;
22937;SDS011;11634;42.734;23.298;2023-05-29T08:44:35;2.92;;;2.25;;
22937;SDS011;11634;42.734;23.298;2023-05-29T08:47:02;2.33;;;2.08;;
22937;SDS011;11634;42.734;23.298;2023-05-29T08:49:37;6.38;;;2.10;;
22937;SDS011;11634;42.734;23.298;2023-05-29T08:52:09;3.35;;;2.10;;
22937;SDS011;11634;42.734;23.298;2023-05-29T08:54:35;3.53;;;2.67;;
22937;SDS011;11634;42.734;23.298;2023-05-29T08:57:01;3.13;;;2.33;;
22937;SDS011;11634;42.734;23.298;2023-05-29T08:59:26;2.50;;;1.80;;
22937;SDS011;11634;42.734;23.298;2023-05-29T09:01:52;3.00;;;1.95;;
22937;SDS011;11634;42.734;23.298;2023-05-29T09:04:18;2.35;;;2.15;;
22937;SDS011;11634;42.734;23.298;2023-05-29T09:06:44;3.28;;;2.75;;
22937;SDS011;11634;42.734;23.298;2023-05-29T09:09:10;2.42;;;2.13;;
22937;SDS011;11634;42.734;23.298;2023-05-29T09:11:35;2.40;;;2.20;;
22937;SDS011;11634;42.734;23.298;2023-05-29T09:14:01;2.40;;;2.20;;
22937;SDS011;11634;42.734;23.298;2023-05-29T09:16:27;3.38;;;2.17;;
22937;SDS011;11634;42.734;23.298;2023-05-29T09:18:57;2.50;;;2.05;;
22937;SDS011;11634;42.734;23.298;2023-05-29T09:21:29;4.07;;;2.53;;
22937;SDS011;11634;42.734;23.298;2023-05-29T09:24:05;3.58;;;2.00;;
22937;SDS011;11634;42.734;23.298;2023-05-29T09:26:34;3.40;;;2.53;;
22937;SDS011;11634;42.734;23.298;2023-05-29T09:28:59;2.15;;;2.03;;
22937;SDS011;11634;42.734;23.298;2023-05-29T09:31:25;2.45;;;2.22;;
22937;SDS011;11634;42.734;23.298;2023-05-29T09:33:53;3.25;;;2.38;;
22937;SDS011;11634;42.734;23.298;2023-05-29T09:36:22;2.67;;;2.45;;
22937;SDS011;11634;42.734;23.298;2023-05-29T09:38:48;2.42;;;2.22;;
22937;SDS011;11634;42.734;23.298;2023-05-29T09:41:13;4.25;;;2.58;;
22937;SDS011;11634;42.734;23.298;2023-05-29T09:43:45;4.95;;;2.53;;
22937;SDS011;11634;42.734;23.298;2023-05-29T09:46:14;4.28;;;2.50;;
22937;SDS011;11634;42.734;23.298;2023-05-29T09:48:40;3.05;;;2.22;;
22937;SDS011;11634;42.734;23.298;2023-05-29T09:51:05;4.30;;;2.50;;
22937;SDS011;11634;42.734;23.298;2023-05-29T09:53:31;2.72;;;2.40;;
22937;SDS011;11634;42.734;23.298;2023-05-29T09:55:56;2.65;;;2.35;;
22937;SDS011;11634;42.734;23.298;2023-05-29T09:58:23;3.10;;;2.70;;
22937;SDS011;11634;42.734;23.298;2023-05-29T10:00:49;4.00;;;2.47;;
22937;SDS011;11634;42.734;23.298;2023-05-29T10:03:17;3.50;;;2.50;;
22937;SDS011;11634;42.734;23.298;2023-05-29T10:05:44;3.08;;;2.78;;
22937;SDS011;11634;42.734;23.298;2023-05-29T10:08:12;10.05;;;2.85;;
22937;SDS011;11634;42.734;23.298;2023-05-29T10:10:40;4.03;;;2.50;;
22937;SDS011;11634;42.734;23.298;2023-05-29T10:13:06;2.70;;;2.50;;
22937;SDS011;11634;42.734;23.298;2023-05-29T10:15:36;3.13;;;2.60;;
22937;SDS011;11634;42.734;23.298;2023-05-29T10:18:02;2.75;;;2.50;;
22937;SDS011;11634;42.734;23.298;2023-05-29T10:20:29;3.47;;;2.80;;
22937;SDS011;11634;42.734;23.298;2023-05-29T10:22:55;3.35;;;2.80;;
22937;SDS011;11634;42.734;23.298;2023-05-29T10:25:21;4.30;;;2.55;;
22937;SDS011;11634;42.734;23.298;2023-05-29T10:27:48;2.75;;;2.50;;
22937;SDS011;11634;42.734;23.298;2023-05-29T10:38:11;3.17;;;2.30;;
22937;SDS011;11634;42.734;23.298;2023-05-29T10:40:37;3.05;;;2.58;;
22937;SDS011;11634;42.734;23.298;2023-05-29T10:43:02;2.45;;;2.25;;
22937;SDS011;11634;42.734;23.298;2023-05-29T10:50:37;3.88;;;2.38;;
22937;SDS011;11634;42.734;23.298;2023-05-29T10:53:05;4.00;;;1.92;;
22937;SDS011;11634;42.734;23.298;2023-05-29T10:55:34;3.38;;;2.50;;
22937;SDS011;11634;42.734;23.298;2023-05-29T10:58:14;3.28;;;2.35;;
22937;SDS011;11634;42.734;23.298;2023-05-29T11:00:43;1.95;;;1.73;;
22937;SDS011;11634;42.734;23.298;2023-05-29T11:03:13;4.50;;;2.67;;
22937;SDS011;11634;42.734;23.298;2023-05-29T11:08:43;3.03;;;2.67;;
22937;SDS011;11634;42.734;23.298;2023-05-29T11:11:14;3.05;;;2.75;;
22937;SDS011;11634;42.734;23.298;2023-05-29T11:13:40;3.88;;;2.88;;
22937;SDS011;11634;42.734;23.298;2023-05-29T11:18:40;2.58;;;2.35;;
22937;SDS011;11634;42.734;23.298;2023-05-29T11:21:06;3.63;;;2.55;;
22937;SDS011;11634;42.734;23.298;2023-05-29T11:23:37;3.63;;;2.05;;
22937;SDS011;11634;42.734;23.298;2023-05-29T11:26:05;3.92;;;2.53;;
22937;SDS011;11634;42.734;23.298;2023-05-29T11:28:32;4.75;;;2.45;;
22937;SDS011;11634;42.734;23.298;2023-05-29T11:30:57;2.25;;;2.05;;
22937;SDS011;11634;42.734;23.298;2023-05-29T11:33:26;2.70;;;2.17;;
22937;SDS011;11634;42.734;23.298;2023-05-29T11:35:57;3.10;;;2.13;;
22937;SDS011;11634;42.734;23.298;2023-05-29T11:38:23;2.92;;;2.30;;
22937;SDS011;11634;42.734;23.298;2023-05-29T11:40:49;3.22;;;2.50;;
22937;SDS011;11634;42.734;23.298;2023-05-29T11:43:14;3.83;;;2.80;;
22937;SDS011;11634;42.734;23.298;2023-05-29T11:45:40;3.50;;;2.35;;
22937;SDS011;11634;42.734;23.298;2023-05-29T11:48:05;4.07;;;2.67;;
22937;SDS011;11634;42.734;23.298;2023-05-29T11:50:31;4.60;;;2.85;;
22937;SDS011;11634;42.734;23.298;2023-05-29T11:52:57;2.40;;;2.20;;
22937;SDS011;11634;42.734;23.298;2023-05-29T11:55:23;3.25;;;2.60;;
22937;SDS011;11634;42.734;23.298;2023-05-29T11:57:50;2.83;;;2.30;;
22937;SDS011;11634;42.734;23.298;2023-05-29T12:00:16;3.40;;;2.47;;
22937;SDS011;11634;42.734;23.298;2023-05-29T12:02:42;5.53;;;2.30;;
22937;SDS011;11634;42.734;23.298;2023-05-29T12:05:08;2.42;;;2.22;;
22937;SDS011;11634;42.734;23.298;2023-05-29T12:07:34;2.47;;;2.28;;
22937;SDS011;11634;42.734;23.298;2023-05-29T12:10:12;2.97;;;2.40;;
22937;SDS011;11634;42.734;23.298;2023-05-29T12:12:39;2.78;;;2.50;;
22937;SDS011;11634;42.734;23.298;2023-05-29T12:15:05;4.38;;;2.58;;
22937;SDS011;11634;42.734;23.298;2023-05-29T12:17:32;10.20;;;2.40;;
22937;SDS011;11634;42.734;23.298;2023-05-29T12:19:58;5.57;;;2.40;;
22937;SDS011;11634;42.734;23.298;2023-05-29T12:22:33;4.78;;;2.03;;
22937;SDS011;11634;42.734;23.298;2023-05-29T12:25:05;3.92;;;1.98;;
22937;SDS011;11634;42.734;23.298;2023-05-29T12:27:31;4.80;;;2.25;;
22937;SDS011;11634;42.734;23.298;2023-05-29T12:30:00;3.63;;;1.88;;
22937;SDS011;11634;42.734;23.298;2023-05-29T12:32:33;3.08;;;2.40;;
22937;SDS011;11634;42.734;23.298;2023-05-29T12:34:59;3.47;;;2.80;;
22937;SDS011;11634;42.734;23.298;2023-05-29T12:37:24;3.05;;;2.22;;
22937;SDS011;11634;42.734;23.298;2023-05-29T12:42:37;3.60;;;2.28;;
22937;SDS011;11634;42.734;23.298;2023-05-29T12:45:02;3.90;;;2.67;;
22937;SDS011;11634;42.734;23.298;2023-05-29T12:47:32;2.85;;;2.50;;
22937;SDS011;11634;42.734;23.298;2023-05-29T12:49:57;2.33;;;2.13;;
22937;SDS011;11634;42.734;23.298;2023-05-29T12:52:23;5.78;;;3.20;;
22937;SDS011;11634;42.734;23.298;2023-05-29T12:54:48;3.58;;;2.50;;
22937;SDS011;11634;42.734;23.298;2023-05-29T12:57:14;3.30;;;2.30;;
22937;SDS011;11634;42.734;23.298;2023-05-29T12:59:39;2.55;;;2.35;;
22937;SDS011;11634;42.734;23.298;2023-05-29T13:02:05;2.67;;;2.47;;
22937;SDS011;11634;42.734;23.298;2023-05-29T13:04:33;2.90;;;1.92;;
22937;SDS011;11634;42.734;23.298;2023-05-29T13:06:58;3.85;;;2.47;;
22937;SDS011;11634;42.734;23.298;2023-05-29T13:09:24;2.75;;;2.40;;
22937;SDS011;11634;42.734;23.298;2023-05-29T13:11:50;2.53;;;2.33;;
22937;SDS011;11634;42.734;23.298;2023-05-29T13:14:15;3.50;;;2.33;;
22937;SDS011;11634;42.734;23.298;2023-05-29T13:16:41;2.97;;;2.70;;
22937;SDS011;11634;42.734;23.298;2023-05-29T13:19:06;3.08;;;2.40;;
22937;SDS011;11634;42.734;23.298;2023-05-29T13:21:32;3.65;;;2.53;;
22937;SDS011;11634;42.734;23.298;2023-05-29T13:23:57;4.13;;;2.45;;
22937;SDS011;11634;42.734;23.298;2023-05-29T13:26:23;3.80;;;2.60;;
22937;SDS011;11634;42.734;23.298;2023-05-29T13:28:48;4.18;;;3.83;;
22937;SDS011;11634;42.734;23.298;2023-05-29T13:31:14;2.40;;;1.10;;
22937;SDS011;11634;42.734;23.298;2023-05-29T13:33:40;1.08;;;0.85;;
22937;SDS011;11634;42.734;23.298;2023-05-29T13:36:05;0.73;;;0.70;;
22937;SDS011;11634;42.734;23.298;2023-05-29T13:38:32;1.35;;;0.60;;
22937;SDS011;11634;42.734;23.298;2023-05-29T13:40:57;0.52;;;0.50;;
22937;SDS011;11634;42.734;23.298;2023-05-29T13:43:22;1.45;;;0.93;;
22937;SDS011;11634;42.734;23.298;2023-05-29T13:45:48;0.95;;;0.70;;
22937;SDS011;11634;42.734;23.298;2023-05-29T13:48:13;1.00;;;0.77;;
22937;SDS011;11634;42.734;23.298;2023-05-29T13:50:39;0.75;;;0.70;;
22937;SDS011;11634;42.734;23.298;2023-05-29T13:53:04;3.08;;;1.02;;
22937;SDS011;11634;42.734;23.298;2023-05-29T13:55:30;5.20;;;0.68;;
22937;SDS011;11634;42.734;23.298;2023-05-29T13:57:55;5.50;;;2.38;;
22937;SDS011;11634;42.734;23.298;2023-05-29T14:00:23;1.05;;;0.80;;
22937;SDS011;11634;42.734;23.298;2023-05-29T14:02:49;1.50;;;0.90;;
22937;SDS011;11634;42.734;23.298;2023-05-29T14:05:14;2.15;;;0.60;;
22937;SDS011;11634;42.734;23.298;2023-05-29T14:07:40;0.85;;;0.65;;
22937;SDS011;11634;42.734;23.298;2023-05-29T14:10:05;2.13;;;0.88;;
22937;SDS011;11634;42.734;23.298;2023-05-29T14:12:31;3.92;;;1.58;;
22937;SDS011;11634;42.734;23.298;2023-05-29T14:14:56;1.77;;;0.90;;
22937;SDS011;11634;42.734;23.298;2023-05-29T14:17:22;1.00;;;0.70;;
22937;SDS011;11634;42.734;23.298;2023-05-29T14:20:02;1.27;;;0.88;;
22937;SDS011;11634;42.734;23.298;2023-05-29T14:22:31;0.70;;;0.55;;
22937;SDS011;11634;42.734;23.298;2023-05-29T14:24:58;1.75;;;0.60;;
22937;SDS011;11634;42.734;23.298;2023-05-29T14:27:26;1.83;;;0.93;;
22937;SDS011;11634;42.734;23.298;2023-05-29T14:29:52;2.05;;;0.75;;
22937;SDS011;11634;42.734;23.298;2023-05-29T14:32:17;0.90;;;0.80;;
22937;SDS011;11634;42.734;23.298;2023-05-29T14:34:47;1.42;;;0.80;;
22937;SDS011;11634;42.734;23.298;2023-05-29T14:37:24;1.60;;;0.95;;
22937;SDS011;11634;42.734;23.298;2023-05-29T14:39:50;1.33;;;1.10;;
22937;SDS011;11634;42.734;23.298;2023-05-29T14:42:15;1.13;;;0.90;;
22937;SDS011;11634;42.734;23.298;2023-05-29T14:44:41;1.15;;;1.05;;
22937;SDS011;11634;42.734;23.298;2023-05-29T14:47:07;1.08;;;0.98;;
22937;SDS011;11634;42.734;23.298;2023-05-29T14:49:33;2.45;;;1.35;;
22937;SDS011;11634;42.734;23.298;2023-05-29T14:51:59;2.92;;;1.20;;
22937;SDS011;11634;42.734;23.298;2023-05-29T14:54:24;1.52;;;1.30;;
22937;SDS011;11634;42.734;23.298;2023-05-29T14:56:50;1.25;;;1.05;;
22937;SDS011;11634;42.734;23.298;2023-05-29T14:59:18;2.05;;;1.30;;
22937;SDS011;11634;42.734;23.298;2023-05-29T15:01:46;1.63;;;1.30;;
22937;SDS011;11634;42.734;23.298;2023-05-29T15:04:15;2.30;;;1.70;;